createdAt,value
2023-04-08T00:00:38.000Z,83.02
2023-04-08T00:01:38.000Z,83.20
2023-04-08T00:02:38.000Z,83.46
2023-04-08T00:03:38.000Z,83.47
2023-04-08T00:04:38.000Z,83.61
2023-04-08T00:05:38.000Z,83.71
2023-04-08T00:06:38.000Z,83.65
2023-04-08T00:07:37.000Z,83.54
2023-04-08T00:08:38.000Z,83.49
2023-04-08T00:09:37.000Z,83.52
2023-04-08T00:10:38.000Z,83.62
2023-04-08T00:11:37.000Z,83.72
2023-04-08T00:12:38.000Z,83.62
2023-04-08T00:13:37.000Z,83.58
2023-04-08T00:14:39.000Z,83.55
2023-04-08T00:15:39.000Z,83.61
2023-04-08T00:16:37.000Z,83.76
2023-04-08T00:17:39.000Z,83.66
2023-04-08T00:18:37.000Z,83.58
2023-04-08T00:19:37.000Z,83.70
2023-04-08T00:20:37.000Z,83.48
2023-04-08T00:21:38.000Z,83.75
2023-04-08T00:22:38.000Z,83.62
2023-04-08T00:23:37.000Z,83.81
2023-04-08T00:24:39.000Z,83.80
2023-04-08T00:25:38.000Z,83.75
2023-04-08T00:26:37.000Z,83.93
2023-04-08T00:27:37.000Z,83.88
2023-04-08T00:28:37.000Z,83.68
2023-04-08T00:29:37.000Z,83.49
2023-04-08T00:30:37.000Z,83.90
2023-04-08T00:31:37.000Z,84.16
2023-04-08T00:32:38.000Z,84.24
2023-04-08T00:33:37.000Z,84.25
2023-04-08T00:34:38.000Z,84.23
2023-04-08T00:35:37.000Z,84.39
2023-04-08T00:36:38.000Z,84.77
2023-04-08T00:37:38.000Z,84.75
2023-04-08T00:38:38.000Z,84.42
2023-04-08T00:39:38.000Z,84.83
2023-04-08T00:40:38.000Z,84.95
2023-04-08T00:41:38.000Z,85.36
2023-04-08T00:42:38.000Z,85.25
2023-04-08T00:43:38.000Z,85.01
2023-04-08T00:44:38.000Z,85.43
2023-04-08T00:45:38.000Z,85.37
2023-04-08T00:46:38.000Z,85.55
2023-04-08T00:47:38.000Z,85.69
2023-04-08T00:48:38.000Z,85.90
2023-04-08T00:49:38.000Z,85.63
2023-04-08T00:50:38.000Z,85.56
2023-04-08T00:51:38.000Z,85.55
2023-04-08T00:52:38.000Z,85.39
2023-04-08T00:53:38.000Z,85.37
2023-04-08T00:54:38.000Z,85.07
2023-04-08T00:55:38.000Z,85.33
2023-04-08T00:56:38.000Z,85.28
2023-04-08T00:57:38.000Z,85.31
2023-04-08T00:58:38.000Z,85.19
2023-04-08T00:59:39.000Z,85.17
2023-04-08T01:00:45.000Z,85.19
2023-04-08T01:01:53.000Z,85.11
2023-04-08T01:02:48.000Z,84.97
2023-04-08T01:03:48.000Z,85.09
2023-04-08T01:04:51.000Z,85.14
2023-04-08T01:05:55.000Z,84.98
2023-04-08T01:06:59.000Z,85.09
2023-04-08T01:07:44.000Z,85.02
2023-04-08T01:08:40.000Z,84.96
2023-04-08T01:09:44.000Z,84.93
2023-04-08T01:10:40.000Z,84.81
2023-04-08T01:11:41.000Z,84.77
2023-04-08T01:12:48.000Z,84.75
2023-04-08T01:13:39.000Z,84.68
2023-04-08T01:14:41.000Z,84.93
2023-04-08T01:15:41.000Z,85.21
2023-04-08T01:16:39.000Z,85.05
2023-04-08T01:17:39.000Z,84.99
2023-04-08T01:18:40.000Z,84.96
2023-04-08T01:19:39.000Z,84.66
2023-04-08T01:20:40.000Z,84.87
2023-04-08T01:21:37.000Z,84.84
2023-04-08T01:22:47.000Z,84.91
2023-04-08T01:23:47.000Z,84.74
2023-04-08T01:24:41.000Z,84.89
2023-04-08T01:25:37.000Z,84.84
2023-04-08T01:26:38.000Z,84.99
2023-04-08T01:27:38.000Z,84.80
2023-04-08T01:28:39.000Z,84.91
2023-04-08T01:29:39.000Z,84.78
2023-04-08T01:30:39.000Z,84.88
2023-04-08T01:31:40.000Z,85.03
2023-04-08T01:32:40.000Z,84.95
2023-04-08T01:33:37.000Z,84.96
2023-04-08T01:34:39.000Z,85.04
2023-04-08T01:35:38.000Z,85.12
2023-04-08T01:36:39.000Z,84.91
2023-04-08T01:37:38.000Z,85.26
2023-04-08T01:38:39.000Z,85.05
2023-04-08T01:39:39.000Z,84.87
2023-04-08T01:40:40.000Z,84.83
2023-04-08T01:41:38.000Z,85.14
2023-04-08T01:42:39.000Z,85.20
2023-04-08T01:43:40.000Z,84.99
2023-04-08T01:44:39.000Z,85.04
2023-04-08T01:45:38.000Z,85.04
2023-04-08T01:46:41.000Z,84.95
2023-04-08T01:47:39.000Z,84.89
2023-04-08T01:48:38.000Z,84.89
2023-04-08T01:49:39.000Z,84.85
2023-04-08T01:50:40.000Z,84.83
2023-04-08T01:51:39.000Z,84.62
2023-04-08T01:52:39.000Z,84.78
2023-04-08T01:53:38.000Z,84.62
2023-04-08T01:54:38.000Z,84.55
2023-04-08T01:55:40.000Z,84.20
2023-04-08T01:56:40.000Z,84.07
2023-04-08T01:57:42.000Z,84.60
2023-04-08T01:58:41.000Z,84.70
2023-04-08T01:59:39.000Z,84.89
2023-04-08T02:00:39.000Z,84.99
2023-04-08T02:01:40.000Z,85.14
2023-04-08T02:02:41.000Z,85.02
2023-04-08T02:03:40.000Z,84.99
2023-04-08T02:04:38.000Z,84.91
2023-04-08T02:05:39.000Z,84.49
2023-04-08T02:06:38.000Z,84.93
2023-04-08T02:07:38.000Z,85.01
2023-04-08T02:08:38.000Z,84.81
2023-04-08T02:09:37.000Z,85.02
2023-04-08T02:10:37.000Z,85.12
2023-04-08T02:11:37.000Z,85.31
2023-04-08T02:12:37.000Z,85.09
2023-04-08T02:13:38.000Z,85.16
2023-04-08T02:14:37.000Z,85.35
2023-04-08T02:15:42.000Z,85.53
2023-04-08T02:16:52.000Z,85.29
2023-04-08T02:18:01.000Z,85.42
2023-04-08T02:18:47.000Z,85.33
2023-04-08T02:19:45.000Z,85.56
2023-04-08T02:20:46.000Z,85.51
2023-04-08T02:21:57.000Z,85.40
2023-04-08T02:23:11.000Z,85.31
2023-04-08T02:23:39.000Z,85.16
2023-04-08T02:24:38.000Z,85.38
2023-04-08T02:25:40.000Z,85.35
2023-04-08T02:26:40.000Z,85.30
2023-04-08T02:27:38.000Z,85.35
2023-04-08T02:28:39.000Z,85.43
2023-04-08T02:29:39.000Z,85.27
2023-04-08T02:30:42.000Z,85.33
2023-04-08T02:31:40.000Z,85.31
2023-04-08T02:32:38.000Z,85.22
2023-04-08T02:33:39.000Z,85.33
2023-04-08T02:34:39.000Z,85.44
2023-04-08T02:35:39.000Z,85.55
2023-04-08T02:36:39.000Z,85.51
2023-04-08T02:37:38.000Z,85.63
2023-04-08T02:38:37.000Z,85.37
2023-04-08T02:39:37.000Z,85.30
2023-04-08T02:40:38.000Z,85.43
2023-04-08T02:41:38.000Z,85.17
2023-04-08T02:42:38.000Z,85.46
2023-04-08T02:43:38.000Z,85.43
2023-04-08T02:44:38.000Z,85.40
2023-04-08T02:45:40.000Z,85.39
2023-04-08T02:46:38.000Z,85.45
2023-04-08T02:47:38.000Z,85.34
2023-04-08T02:48:38.000Z,85.44
2023-04-08T02:49:38.000Z,85.43
2023-04-08T02:50:39.000Z,85.27
2023-04-08T02:51:38.000Z,85.29
2023-04-08T02:52:38.000Z,85.29
2023-04-08T02:53:38.000Z,85.46
2023-04-08T02:54:38.000Z,85.31
2023-04-08T02:55:38.000Z,85.46
2023-04-08T02:56:37.000Z,85.45
2023-04-08T02:57:38.000Z,85.38
2023-04-08T02:58:38.000Z,85.33
2023-04-08T02:59:39.000Z,85.38
2023-04-08T03:00:38.000Z,85.35
2023-04-08T03:01:38.000Z,85.47
2023-04-08T03:02:38.000Z,85.46
2023-04-08T03:03:38.000Z,85.51
2023-04-08T03:04:37.000Z,85.76
2023-04-08T03:05:37.000Z,85.58
2023-04-08T03:06:38.000Z,85.74
2023-04-08T03:07:38.000Z,85.66
2023-04-08T03:08:38.000Z,85.67
2023-04-08T03:09:38.000Z,85.73
2023-04-08T03:10:38.000Z,85.81
2023-04-08T03:11:37.000Z,85.73
2023-04-08T03:12:37.000Z,85.74
2023-04-08T03:13:38.000Z,85.64
2023-04-08T03:14:38.000Z,85.69
2023-04-08T03:15:38.000Z,85.65
2023-04-08T03:16:37.000Z,85.62
2023-04-08T03:17:37.000Z,85.82
2023-04-08T03:18:38.000Z,85.91
2023-04-08T03:19:37.000Z,85.78
2023-04-08T03:20:37.000Z,85.56
2023-04-08T03:21:37.000Z,85.62
2023-04-08T03:22:37.000Z,85.71
2023-04-08T03:23:37.000Z,85.87
2023-04-08T03:24:38.000Z,85.69
2023-04-08T03:25:37.000Z,85.74
2023-04-08T03:26:37.000Z,85.84
2023-04-08T03:27:37.000Z,85.76
2023-04-08T03:28:37.000Z,85.76
2023-04-08T03:29:38.000Z,85.69
2023-04-08T03:30:38.000Z,85.42
2023-04-08T03:31:38.000Z,85.62
2023-04-08T03:32:38.000Z,85.32
2023-04-08T03:33:37.000Z,85.23
2023-04-08T03:34:38.000Z,85.17
2023-04-08T03:35:38.000Z,85.11
2023-04-08T03:36:37.000Z,84.95
2023-04-08T03:37:38.000Z,84.81
2023-04-08T03:38:38.000Z,85.05
2023-04-08T03:39:37.000Z,84.99
2023-04-08T03:40:37.000Z,85.08
2023-04-08T03:41:38.000Z,85.23
2023-04-08T03:42:38.000Z,85.09
2023-04-08T03:43:38.000Z,84.95
2023-04-08T03:44:38.000Z,84.85
2023-04-08T03:45:38.000Z,84.66
2023-04-08T03:46:38.000Z,84.76
2023-04-08T03:47:38.000Z,84.74
2023-04-08T03:48:37.000Z,84.73
2023-04-08T03:49:38.000Z,84.59
2023-04-08T03:50:38.000Z,84.59
2023-04-08T03:51:37.000Z,84.46
2023-04-08T03:52:38.000Z,84.41
2023-04-08T03:53:38.000Z,84.35
2023-04-08T03:54:38.000Z,84.68
2023-04-08T03:55:38.000Z,84.49
2023-04-08T03:56:38.000Z,84.83
2023-04-08T03:57:38.000Z,84.86
2023-04-08T03:58:38.000Z,84.70
2023-04-08T03:59:39.000Z,84.65
2023-04-08T04:00:38.000Z,84.61
2023-04-08T04:01:38.000Z,84.55
2023-04-08T04:02:38.000Z,84.52
2023-04-08T04:03:38.000Z,84.37
2023-04-08T04:04:38.000Z,84.39
2023-04-08T04:05:38.000Z,84.23
2023-04-08T04:06:37.000Z,84.14
2023-04-08T04:07:38.000Z,84.06
2023-04-08T04:08:38.000Z,84.06
2023-04-08T04:09:38.000Z,84.20
2023-04-08T04:10:37.000Z,84.22
2023-04-08T04:11:38.000Z,84.09
2023-04-08T04:12:38.000Z,84.36
2023-04-08T04:13:38.000Z,84.24
2023-04-08T04:14:38.000Z,84.46
2023-04-08T04:15:39.000Z,84.48
2023-04-08T04:16:38.000Z,84.59
2023-04-08T04:17:37.000Z,84.74
2023-04-08T04:18:38.000Z,85.06
2023-04-08T04:19:38.000Z,85.08
2023-04-08T04:20:39.000Z,84.99
2023-04-08T04:21:38.000Z,85.00
2023-04-08T04:22:37.000Z,84.92
2023-04-08T04:23:38.000Z,85.08
2023-04-08T04:24:38.000Z,85.14
2023-04-08T04:25:41.000Z,85.24
2023-04-08T04:26:40.000Z,85.37
2023-04-08T04:27:38.000Z,85.48
2023-04-08T04:28:38.000Z,85.80
2023-04-08T04:29:38.000Z,85.97
2023-04-08T04:30:38.000Z,85.87
2023-04-08T04:31:37.000Z,85.99
2023-04-08T04:32:37.000Z,86.10
2023-04-08T04:33:37.000Z,86.09
2023-04-08T04:34:38.000Z,85.96
2023-04-08T04:35:38.000Z,86.08
2023-04-08T04:36:38.000Z,86.23
2023-04-08T04:37:37.000Z,86.18
2023-04-08T04:38:38.000Z,86.17
2023-04-08T04:39:38.000Z,86.12
2023-04-08T04:40:38.000Z,86.00
2023-04-08T04:41:39.000Z,86.36
2023-04-08T04:42:37.000Z,86.34
2023-04-08T04:43:37.000Z,86.39
2023-04-08T04:44:37.000Z,86.56
2023-04-08T04:45:37.000Z,86.51
2023-04-08T04:46:37.000Z,86.40
2023-04-08T04:47:37.000Z,86.32
2023-04-08T04:48:37.000Z,86.43
2023-04-08T04:49:38.000Z,86.34
2023-04-08T04:50:37.000Z,86.39
2023-04-08T04:51:38.000Z,86.23
2023-04-08T04:52:37.000Z,86.34
2023-04-08T04:53:37.000Z,85.99
2023-04-08T04:54:37.000Z,85.80
2023-04-08T04:55:37.000Z,85.84
2023-04-08T04:56:37.000Z,85.73
2023-04-08T04:57:37.000Z,85.66
2023-04-08T04:58:37.000Z,85.51
2023-04-08T04:59:37.000Z,85.75
2023-04-08T05:00:37.000Z,85.97
2023-04-08T05:01:39.000Z,85.76
2023-04-08T05:02:37.000Z,85.76
2023-04-08T05:03:37.000Z,85.79
2023-04-08T05:04:38.000Z,85.62
2023-04-08T05:05:38.000Z,85.44
2023-04-08T05:06:37.000Z,85.84
2023-04-08T05:07:37.000Z,85.77
2023-04-08T05:08:37.000Z,86.11
2023-04-08T05:09:37.000Z,86.13
2023-04-08T05:10:39.000Z,86.28
2023-04-08T05:11:37.000Z,86.39
2023-04-08T05:12:37.000Z,86.36
2023-04-08T05:13:37.000Z,86.11
2023-04-08T05:14:37.000Z,86.02
2023-04-08T05:15:37.000Z,86.17
2023-04-08T05:16:37.000Z,86.02
2023-04-08T05:17:38.000Z,86.19
2023-04-08T05:18:37.000Z,86.38
2023-04-08T05:19:37.000Z,86.29
2023-04-08T05:20:37.000Z,86.38
2023-04-08T05:21:37.000Z,86.08
2023-04-08T05:22:37.000Z,85.88
2023-04-08T05:23:37.000Z,85.72
2023-04-08T05:24:37.000Z,85.55
2023-04-08T05:25:37.000Z,85.33
2023-04-08T05:26:37.000Z,85.33
2023-04-08T05:27:38.000Z,85.19
2023-04-08T05:28:37.000Z,85.22
2023-04-08T05:29:37.000Z,85.08
2023-04-08T05:30:37.000Z,85.17
2023-04-08T05:31:37.000Z,85.40
2023-04-08T05:32:37.000Z,85.59
2023-04-08T05:33:37.000Z,85.38
2023-04-08T05:34:37.000Z,85.08
2023-04-08T05:35:37.000Z,85.31
2023-04-08T05:36:37.000Z,85.75
2023-04-08T05:37:37.000Z,85.62
2023-04-08T05:38:38.000Z,85.50
2023-04-08T05:39:37.000Z,85.76
2023-04-08T05:40:37.000Z,85.52
2023-04-08T05:41:37.000Z,85.85
2023-04-08T05:42:37.000Z,85.73
2023-04-08T05:43:37.000Z,85.96
2023-04-08T05:44:39.000Z,86.00
2023-04-08T05:45:38.000Z,86.02
2023-04-08T05:46:38.000Z,85.98
2023-04-08T05:47:37.000Z,86.14
2023-04-08T05:48:37.000Z,86.15
2023-04-08T05:49:37.000Z,86.11
2023-04-08T05:50:38.000Z,85.93
2023-04-08T05:51:38.000Z,85.76
2023-04-08T05:52:42.000Z,85.81
2023-04-08T05:53:37.000Z,85.77
2023-04-08T05:54:41.000Z,85.43
2023-04-08T05:55:38.000Z,85.38
2023-04-08T05:56:38.000Z,85.31
2023-04-08T05:57:38.000Z,85.45
2023-04-08T05:58:38.000Z,85.71
2023-04-08T05:59:37.000Z,85.75
2023-04-08T06:00:38.000Z,86.16
2023-04-08T06:01:38.000Z,85.94
2023-04-08T06:02:37.000Z,85.81
2023-04-08T06:03:38.000Z,86.37
2023-04-08T06:04:37.000Z,86.08
2023-04-08T06:05:37.000Z,86.07
2023-04-08T06:06:39.000Z,86.01
2023-04-08T06:07:37.000Z,86.41
2023-04-08T06:08:38.000Z,85.93
2023-04-08T06:09:37.000Z,86.08
2023-04-08T06:10:38.000Z,86.17
2023-04-08T06:11:37.000Z,86.03
2023-04-08T06:12:38.000Z,86.42
2023-04-08T06:13:38.000Z,87.00
2023-04-08T06:14:37.000Z,87.09
2023-04-08T06:15:37.000Z,86.77
2023-04-08T06:16:37.000Z,87.11
2023-04-08T06:17:38.000Z,87.19
2023-04-08T06:18:38.000Z,87.15
2023-04-08T06:19:37.000Z,87.12
2023-04-08T06:20:37.000Z,87.34
2023-04-08T06:21:37.000Z,87.50
2023-04-08T06:22:37.000Z,87.57
2023-04-08T06:23:37.000Z,87.36
2023-04-08T06:24:37.000Z,87.50
2023-04-08T06:25:37.000Z,87.68
2023-04-08T06:26:37.000Z,87.76
2023-04-08T06:27:37.000Z,87.89
2023-04-08T06:28:37.000Z,87.73
2023-04-08T06:29:37.000Z,88.11
2023-04-08T06:30:37.000Z,88.30
2023-04-08T06:31:37.000Z,88.40
2023-04-08T06:32:37.000Z,88.52
2023-04-08T06:33:37.000Z,88.53
2023-04-08T06:34:38.000Z,88.63
2023-04-08T06:35:37.000Z,88.34
2023-04-08T06:36:37.000Z,88.54
2023-04-08T06:37:37.000Z,88.46
2023-04-08T06:38:37.000Z,88.64
2023-04-08T06:39:37.000Z,88.68
2023-04-08T06:40:38.000Z,88.65
2023-04-08T06:41:37.000Z,88.59
2023-04-08T06:42:39.000Z,88.38
2023-04-08T06:43:37.000Z,88.14
2023-04-08T06:44:37.000Z,88.32
2023-04-08T06:45:37.000Z,88.04
2023-04-08T06:46:37.000Z,88.03
2023-04-08T06:47:37.000Z,87.95
2023-04-08T06:48:38.000Z,88.02
2023-04-08T06:49:37.000Z,87.92
2023-04-08T06:50:37.000Z,88.09
2023-04-08T06:51:37.000Z,88.11
2023-04-08T06:52:37.000Z,88.22
2023-04-08T06:53:37.000Z,87.73
2023-04-08T06:54:37.000Z,88.02
2023-04-08T06:55:37.000Z,87.69
2023-04-08T06:56:37.000Z,87.68
2023-04-08T06:57:37.000Z,87.55
2023-04-08T06:58:37.000Z,87.12
2023-04-08T06:59:37.000Z,87.01
2023-04-08T07:00:37.000Z,87.43
2023-04-08T07:01:37.000Z,86.95
2023-04-08T07:02:37.000Z,86.76
2023-04-08T07:03:37.000Z,86.61
2023-04-08T07:04:37.000Z,86.07
2023-04-08T07:05:37.000Z,86.09
2023-04-08T07:06:37.000Z,86.00
2023-04-08T07:07:37.000Z,85.75
2023-04-08T07:08:37.000Z,85.65
2023-04-08T07:09:38.000Z,85.60
2023-04-08T07:10:37.000Z,85.71
2023-04-08T07:11:37.000Z,85.41
2023-04-08T07:12:37.000Z,85.44
2023-04-08T07:13:37.000Z,85.29
2023-04-08T07:14:38.000Z,85.24
2023-04-08T07:15:38.000Z,84.90
2023-04-08T07:16:38.000Z,84.81
2023-04-08T07:17:38.000Z,84.04
2023-04-08T07:18:40.000Z,84.12
2023-04-08T07:19:38.000Z,84.07
2023-04-08T07:20:38.000Z,84.14
2023-04-08T07:21:38.000Z,84.10
2023-04-08T07:22:38.000Z,84.47
2023-04-08T07:23:38.000Z,84.05
2023-04-08T07:24:38.000Z,83.24
2023-04-08T07:25:38.000Z,83.40
2023-04-08T07:26:38.000Z,83.57
2023-04-08T07:27:38.000Z,83.83
2023-04-08T07:28:37.000Z,83.93
2023-04-08T07:29:38.000Z,83.30
2023-04-08T07:30:38.000Z,83.81
2023-04-08T07:31:38.000Z,83.74
2023-04-08T07:32:38.000Z,83.60
2023-04-08T07:33:38.000Z,83.85
2023-04-08T07:34:38.000Z,83.14
2023-04-08T07:35:38.000Z,82.91
2023-04-08T07:36:38.000Z,83.09
2023-04-08T07:37:37.000Z,83.04
2023-04-08T07:38:38.000Z,82.97
2023-04-08T07:39:38.000Z,82.84
2023-04-08T07:40:38.000Z,82.67
2023-04-08T07:41:38.000Z,81.97
2023-04-08T07:42:38.000Z,82.04
2023-04-08T07:43:38.000Z,82.36
2023-04-08T07:44:37.000Z,82.44
2023-04-08T07:45:38.000Z,82.31
2023-04-08T07:46:38.000Z,81.86
2023-04-08T07:47:38.000Z,81.44
2023-04-08T07:48:37.000Z,81.94
2023-04-08T07:49:38.000Z,81.71
2023-04-08T07:50:38.000Z,81.94
2023-04-08T07:51:38.000Z,82.00
2023-04-08T07:52:38.000Z,82.19
2023-04-08T07:53:38.000Z,82.13
2023-04-08T07:54:37.000Z,82.11
2023-04-08T07:55:39.000Z,81.93
2023-04-08T07:56:39.000Z,81.98
2023-04-08T07:57:37.000Z,81.96
2023-04-08T07:58:39.000Z,81.49
2023-04-08T07:59:38.000Z,81.10
2023-04-08T08:00:39.000Z,80.96
2023-04-08T08:01:38.000Z,80.66
2023-04-08T08:02:37.000Z,80.25
2023-04-08T08:03:38.000Z,80.50
2023-04-08T08:04:38.000Z,80.13
2023-04-08T08:05:37.000Z,79.07
2023-04-08T08:06:38.000Z,78.35
2023-04-08T08:07:37.000Z,77.67
2023-04-08T08:08:38.000Z,77.70
2023-04-08T08:09:37.000Z,77.89
2023-04-08T08:10:38.000Z,78.02
2023-04-08T08:11:38.000Z,77.99
2023-04-08T08:12:37.000Z,76.51
2023-04-08T08:13:38.000Z,76.50
2023-04-08T08:14:37.000Z,76.22
2023-04-08T08:15:37.000Z,75.62
2023-04-08T08:16:38.000Z,74.60
2023-04-08T08:17:37.000Z,72.92
2023-04-08T08:18:39.000Z,72.94
2023-04-08T08:19:37.000Z,73.37
2023-04-08T08:20:37.000Z,73.34
2023-04-08T08:21:40.000Z,73.22
2023-04-08T08:22:38.000Z,73.21
2023-04-08T08:23:37.000Z,73.49
2023-04-08T08:24:37.000Z,72.80
2023-04-08T08:25:37.000Z,72.67
2023-04-08T08:26:38.000Z,70.81
2023-04-08T08:27:40.000Z,68.57
2023-04-08T08:28:38.000Z,67.23
2023-04-08T08:29:37.000Z,67.21
2023-04-08T08:30:37.000Z,66.41
2023-04-08T08:31:37.000Z,66.03
2023-04-08T08:32:37.000Z,65.68
2023-04-08T08:33:38.000Z,64.75
2023-04-08T08:34:37.000Z,63.38
2023-04-08T08:35:37.000Z,63.91
2023-04-08T08:36:37.000Z,64.89
2023-04-08T08:37:37.000Z,63.47
2023-04-08T08:38:37.000Z,62.03
2023-04-08T08:39:37.000Z,61.80
2023-04-08T08:40:38.000Z,61.53
2023-04-08T08:41:38.000Z,60.82
2023-04-08T08:42:38.000Z,61.82
2023-04-08T08:43:38.000Z,60.70
2023-04-08T08:44:37.000Z,61.10
2023-04-08T08:45:38.000Z,60.53
2023-04-08T08:46:43.000Z,61.33
2023-04-08T08:47:37.000Z,60.88
2023-04-08T08:48:39.000Z,60.99
2023-04-08T08:49:37.000Z,61.46
2023-04-08T08:50:37.000Z,61.03
2023-04-08T08:51:39.000Z,60.69
2023-04-08T08:52:37.000Z,57.87
2023-04-08T08:53:38.000Z,57.97
2023-04-08T08:54:37.000Z,57.80
2023-04-08T08:55:38.000Z,58.31
2023-04-08T08:56:37.000Z,59.21
2023-04-08T08:57:37.000Z,59.09
2023-04-08T08:58:37.000Z,58.01
2023-04-08T08:59:37.000Z,58.59
2023-04-08T09:00:41.000Z,59.21
2023-04-08T09:01:38.000Z,59.28
2023-04-08T09:02:37.000Z,59.76
2023-04-08T09:03:37.000Z,59.41
2023-04-08T09:04:37.000Z,60.79
2023-04-08T09:05:47.000Z,60.50
2023-04-08T09:06:38.000Z,60.72
2023-04-08T09:07:40.000Z,60.99
2023-04-08T09:08:37.000Z,61.92
2023-04-08T09:09:47.000Z,62.05
2023-04-08T09:10:37.000Z,62.69
2023-04-08T09:11:42.000Z,61.99
2023-04-08T09:12:53.000Z,62.32
2023-04-08T09:13:37.000Z,62.61
2023-04-08T09:14:38.000Z,62.77
2023-04-08T09:15:57.000Z,63.34
2023-04-08T09:16:40.000Z,62.85
2023-04-08T09:17:38.000Z,62.40
2023-04-08T09:18:38.000Z,61.75
2023-04-08T09:19:37.000Z,62.21
2023-04-08T09:20:50.000Z,62.34
2023-04-08T09:21:39.000Z,62.71
2023-04-08T09:22:47.000Z,63.42
2023-04-08T09:23:43.000Z,63.42
2023-04-08T09:24:37.000Z,63.30
2023-04-08T09:25:37.000Z,63.59
2023-04-08T09:26:37.000Z,63.52
2023-04-08T09:27:37.000Z,63.05
2023-04-08T09:28:39.000Z,62.60
2023-04-08T09:29:37.000Z,62.33
2023-04-08T09:30:37.000Z,62.35
2023-04-08T09:31:40.000Z,63.08
2023-04-08T09:32:46.000Z,62.93
2023-04-08T09:33:37.000Z,63.48
2023-04-08T09:34:38.000Z,62.96
2023-04-08T09:35:37.000Z,62.07
2023-04-08T09:36:37.000Z,63.13
2023-04-08T09:37:37.000Z,62.18
2023-04-08T09:38:37.000Z,62.08
2023-04-08T09:39:37.000Z,62.31
2023-04-08T09:40:40.000Z,62.05
2023-04-08T09:41:38.000Z,61.63
2023-04-08T09:42:44.000Z,61.36
2023-04-08T09:43:41.000Z,62.07
2023-04-08T09:44:39.000Z,61.82
2023-04-08T09:45:39.000Z,62.05
2023-04-08T09:46:50.000Z,61.64
2023-04-08T09:47:49.000Z,61.37
2023-04-08T09:48:47.000Z,61.58
2023-04-08T09:49:45.000Z,61.55
2023-04-08T09:50:46.000Z,60.66
2023-04-08T09:51:48.000Z,60.46
2023-04-08T09:52:43.000Z,60.95
2023-04-08T09:53:46.000Z,60.54
2023-04-08T09:54:50.000Z,60.89
2023-04-08T09:55:38.000Z,61.02
2023-04-08T09:56:46.000Z,60.69
2023-04-08T09:57:45.000Z,61.13
2023-04-08T09:58:44.000Z,60.81
2023-04-08T09:59:51.000Z,60.30
2023-04-08T10:00:43.000Z,60.55
2023-04-08T10:01:45.000Z,60.14
2023-04-08T10:02:52.000Z,60.61
2023-04-08T10:03:46.000Z,61.02
2023-04-08T10:04:40.000Z,60.87
2023-04-08T10:05:40.000Z,60.95
2023-04-08T10:06:40.000Z,60.55
2023-04-08T10:07:38.000Z,60.15
2023-04-08T10:08:38.000Z,59.64
2023-04-08T10:09:41.000Z,59.72
2023-04-08T10:10:39.000Z,59.24
2023-04-08T10:11:38.000Z,58.48
2023-04-08T10:12:38.000Z,58.87
2023-04-08T10:13:38.000Z,59.08
2023-04-08T10:14:38.000Z,58.76
2023-04-08T10:15:39.000Z,58.90
2023-04-08T10:16:37.000Z,59.84
2023-04-08T10:17:37.000Z,59.18
2023-04-08T10:18:37.000Z,58.88
2023-04-08T10:19:40.000Z,58.24
2023-04-08T10:20:41.000Z,58.38
2023-04-08T10:21:40.000Z,58.31
2023-04-08T10:22:45.000Z,58.33
2023-04-08T10:23:47.000Z,58.42
2023-04-08T10:24:37.000Z,58.39
2023-04-08T10:25:47.000Z,58.19
2023-04-08T10:26:41.000Z,58.20
2023-04-08T10:27:38.000Z,58.44
2023-04-08T10:28:37.000Z,58.74
2023-04-08T10:29:37.000Z,58.57
2023-04-08T10:30:41.000Z,57.86
2023-04-08T10:31:38.000Z,57.74
2023-04-08T10:32:38.000Z,58.23
2023-04-08T10:33:37.000Z,58.27
2023-04-08T10:34:50.000Z,58.61
2023-04-08T10:35:51.000Z,58.67
2023-04-08T10:36:37.000Z,58.67
2023-04-08T10:37:37.000Z,58.91
2023-04-08T10:38:37.000Z,58.47
2023-04-08T10:39:37.000Z,59.21
2023-04-08T10:40:38.000Z,58.56
2023-04-08T10:41:46.000Z,58.79
2023-04-08T10:42:37.000Z,59.13
2023-04-08T10:43:37.000Z,59.08
2023-04-08T10:44:42.000Z,59.09
2023-04-08T10:45:41.000Z,59.05
2023-04-08T10:46:37.000Z,59.19
2023-04-08T10:47:37.000Z,58.95
2023-04-08T10:48:37.000Z,59.05
2023-04-08T10:49:37.000Z,59.33
2023-04-08T10:50:38.000Z,59.19
2023-04-08T10:51:38.000Z,59.06
2023-04-08T10:52:47.000Z,59.27
2023-04-08T10:53:41.000Z,59.42
2023-04-08T10:54:45.000Z,59.36
2023-04-08T10:55:37.000Z,59.35
2023-04-08T10:56:47.000Z,59.20
2023-04-08T10:57:40.000Z,59.49
2023-04-08T10:58:47.000Z,59.22
2023-04-08T10:59:38.000Z,59.01
2023-04-08T11:00:38.000Z,59.10
2023-04-08T11:01:43.000Z,59.18
2023-04-08T11:02:37.000Z,59.25
2023-04-08T11:03:37.000Z,59.48
2023-04-08T11:04:40.000Z,59.36
2023-04-08T11:05:37.000Z,59.30
2023-04-08T11:06:37.000Z,58.97
2023-04-08T11:07:39.000Z,59.04
2023-04-08T11:08:37.000Z,59.25
2023-04-08T11:09:39.000Z,59.06
2023-04-08T11:10:38.000Z,59.15
2023-04-08T11:11:40.000Z,58.37
2023-04-08T11:12:38.000Z,58.75
2023-04-08T11:13:39.000Z,58.34
2023-04-08T11:14:39.000Z,58.48
2023-04-08T11:15:37.000Z,58.36
2023-04-08T11:16:38.000Z,57.41
2023-04-08T11:17:37.000Z,57.42
2023-04-08T11:18:38.000Z,58.08
2023-04-08T11:19:38.000Z,57.81
2023-04-08T11:20:38.000Z,57.86
2023-04-08T11:21:37.000Z,57.82
2023-04-08T11:22:38.000Z,57.63
2023-04-08T11:23:37.000Z,57.77
2023-04-08T11:24:37.000Z,57.97
2023-04-08T11:25:38.000Z,57.80
2023-04-08T11:26:38.000Z,58.21
2023-04-08T11:27:38.000Z,58.05
2023-04-08T11:28:37.000Z,58.15
2023-04-08T11:29:38.000Z,58.35
2023-04-08T11:30:39.000Z,57.93
2023-04-08T11:31:38.000Z,58.28
2023-04-08T11:32:38.000Z,57.11
2023-04-08T11:33:43.000Z,57.11
2023-04-08T11:34:37.000Z,56.94
2023-04-08T11:35:40.000Z,56.64
2023-04-08T11:36:40.000Z,56.81
2023-04-08T11:37:38.000Z,56.60
2023-04-08T11:38:37.000Z,56.91
2023-04-08T11:39:43.000Z,57.41
2023-04-08T11:40:37.000Z,56.90
2023-04-08T11:41:38.000Z,56.35
2023-04-08T11:42:38.000Z,56.53
2023-04-08T11:43:49.000Z,56.67
2023-04-08T11:44:37.000Z,56.90
2023-04-08T11:45:38.000Z,57.15
2023-04-08T11:46:39.000Z,57.44
2023-04-08T11:47:38.000Z,57.49
2023-04-08T11:48:38.000Z,57.47
2023-04-08T11:49:43.000Z,57.30
2023-04-08T11:50:38.000Z,56.88
2023-04-08T11:51:47.000Z,56.08
2023-04-08T11:52:45.000Z,55.86
2023-04-08T11:53:37.000Z,56.03
2023-04-08T11:54:41.000Z,56.36
2023-04-08T11:55:38.000Z,56.52
2023-04-08T11:56:43.000Z,56.80
2023-04-08T11:57:38.000Z,56.04
2023-04-08T11:58:37.000Z,56.20
2023-04-08T11:59:37.000Z,56.27
2023-04-08T12:00:38.000Z,56.35
2023-04-08T12:01:37.000Z,56.26
2023-04-08T12:02:38.000Z,55.81
2023-04-08T12:03:38.000Z,56.01
2023-04-08T12:04:38.000Z,55.55
2023-04-08T12:05:38.000Z,55.93
2023-04-08T12:06:37.000Z,55.80
2023-04-08T12:07:38.000Z,54.94
2023-04-08T12:08:37.000Z,55.14
2023-04-08T12:09:37.000Z,55.81
2023-04-08T12:10:37.000Z,55.13
2023-04-08T12:11:37.000Z,54.82
2023-04-08T12:12:38.000Z,55.67
2023-04-08T12:13:37.000Z,54.83
2023-04-08T12:14:37.000Z,55.60
2023-04-08T12:15:37.000Z,54.38
2023-04-08T12:16:38.000Z,54.51
2023-04-08T12:17:37.000Z,53.37
2023-04-08T12:18:38.000Z,53.64
2023-04-08T12:19:37.000Z,53.94
2023-04-08T12:20:38.000Z,53.70
2023-04-08T12:21:38.000Z,54.50
2023-04-08T12:22:38.000Z,55.10
2023-04-08T12:23:37.000Z,54.96
2023-04-08T12:24:38.000Z,54.89
2023-04-08T12:25:38.000Z,54.54
2023-04-08T12:26:37.000Z,53.75
2023-04-08T12:27:38.000Z,53.80
2023-04-08T12:28:38.000Z,52.62
2023-04-08T12:29:38.000Z,53.54
2023-04-08T12:30:38.000Z,53.25
2023-04-08T12:31:38.000Z,53.70
2023-04-08T12:32:38.000Z,52.60
2023-04-08T12:33:38.000Z,52.90
2023-04-08T12:34:38.000Z,52.70
2023-04-08T12:35:37.000Z,52.70
2023-04-08T12:36:38.000Z,52.60
2023-04-08T12:37:37.000Z,53.14
2023-04-08T12:38:38.000Z,53.47
2023-04-08T12:39:38.000Z,53.44
2023-04-08T12:40:38.000Z,53.30
2023-04-08T12:41:37.000Z,54.14
2023-04-08T12:42:38.000Z,53.86
2023-04-08T12:43:38.000Z,53.90
2023-04-08T12:44:38.000Z,54.03
2023-04-08T12:45:38.000Z,54.22
2023-04-08T12:46:38.000Z,54.46
2023-04-08T12:47:38.000Z,53.88
2023-04-08T12:48:37.000Z,53.85
2023-04-08T12:49:37.000Z,53.78
2023-04-08T12:50:37.000Z,54.16
2023-04-08T12:51:38.000Z,54.00
2023-04-08T12:52:37.000Z,54.89